Time;durP1;ratioP1;P1;durP2;ratioP2;P2;SDS_P1;SDS_P2;PMS_P1;PMS_P2;Temp;Humidity;BMP_temperature;BMP_pressure;BME280_temperature;BME280_humidity;BME280_pressure;Samples;Min_cycle;Max_cycle;Signal;HPM_P1;HPM_P2
2024/03/18 00:00:16;;;;;;;3.40;2.60;;;;;;;;;;5054903;28;20373;-81
2024/03/18 00:02:43;;;;;;;3.92;2.90;;;;;;;;;;5055014;28;20378;-80
2024/03/18 00:05:13;;;;;;;4.13;2.50;;;;;;;;;;5054745;28;20417;-81
2024/03/18 00:07:39;;;;;;;4.43;2.92;;;;;;;;;;5054478;28;20381;-80
2024/03/18 00:10:09;;;;;;;3.28;2.63;;;;;;;;;;5054905;28;20377;-80
2024/03/18 00:12:36;;;;;;;3.67;2.72;;;;;;;;;;5054094;28;20385;-81
2024/03/18 00:15:02;;;;;;;5.10;3.40;;;;;;;;;;5053993;28;20416;-81
2024/03/18 00:17:28;;;;;;;4.15;3.15;;;;;;;;;;5053484;28;20466;-80
2024/03/18 00:19:54;;;;;;;3.03;2.67;;;;;;;;;;5051809;28;20393;-80
2024/03/18 00:22:21;;;;;;;7.25;3.35;;;;;;;;;;5053871;28;20370;-81
2024/03/18 00:24:47;;;;;;;6.15;3.20;;;;;;;;;;5053487;28;20374;-80
2024/03/18 00:27:13;;;;;;;4.25;2.63;;;;;;;;;;5054047;28;20434;-80
2024/03/18 00:29:39;;;;;;;3.83;3.40;;;;;;;;;;5054000;28;20388;-80
2024/03/18 00:32:06;;;;;;;4.43;2.95;;;;;;;;;;5054476;28;20384;-80
2024/03/18 00:34:32;;;;;;;3.33;2.53;;;;;;;;;;5054053;28;20459;-81
2024/03/18 00:36:58;;;;;;;4.85;3.00;;;;;;;;;;5053923;28;20867;-80
2024/03/18 00:39:26;;;;;;;3.38;2.50;;;;;;;;;;5054294;28;20396;-80
2024/03/18 00:41:52;;;;;;;5.22;3.00;;;;;;;;;;5054258;28;20373;-81
2024/03/18 00:44:20;;;;;;;3.10;2.40;;;;;;;;;;5053722;28;20403;-80
2024/03/18 00:46:46;;;;;;;3.65;2.70;;;;;;;;;;5053763;28;20910;-80
2024/03/18 00:49:13;;;;;;;4.50;3.00;;;;;;;;;;5053795;28;20397;-81
2024/03/18 00:51:40;;;;;;;6.10;3.50;;;;;;;;;;5053808;28;20373;-80
2024/03/18 00:54:07;;;;;;;5.20;3.45;;;;;;;;;;5053046;28;20412;-80
2024/03/18 00:56:33;;;;;;;4.53;3.13;;;;;;;;;;5053944;28;20890;-80
2024/03/18 00:58:59;;;;;;;3.75;3.03;;;;;;;;;;5053290;28;20389;-80
2024/03/18 01:01:25;;;;;;;5.63;3.67;;;;;;;;;;5052614;28;20435;-81
2024/03/18 01:03:51;;;;;;;6.85;3.65;;;;;;;;;;5052996;28;20385;-80
2024/03/18 01:06:18;;;;;;;4.03;3.40;;;;;;;;;;5053342;28;20393;-80
2024/03/18 01:08:44;;;;;;;4.75;3.10;;;;;;;;;;5053094;28;20443;-80
2024/03/18 01:11:10;;;;;;;4.22;3.00;;;;;;;;;;5053659;28;20378;-80
2024/03/18 01:13:36;;;;;;;3.90;3.13;;;;;;;;;;5053495;28;20529;-80
2024/03/18 01:16:03;;;;;;;3.70;3.25;;;;;;;;;;5053365;28;20854;-80
2024/03/18 01:18:29;;;;;;;5.82;3.28;;;;;;;;;;5053085;28;20374;-80
2024/03/18 01:20:57;;;;;;;3.90;3.17;;;;;;;;;;5052904;28;20412;-80
2024/03/18 01:23:23;;;;;;;4.27;3.20;;;;;;;;;;5053586;28;20712;-80
2024/03/18 01:25:49;;;;;;;3.90;3.10;;;;;;;;;;5053240;28;21078;-81
2024/03/18 01:28:15;;;;;;;4.03;3.13;;;;;;;;;;5053520;28;20385;-81
2024/03/18 01:30:41;;;;;;;4.30;3.90;;;;;;;;;;5053264;28;20386;-80
2024/03/18 01:33:08;;;;;;;5.03;3.60;;;;;;;;;;5057123;28;20462;-80
2024/03/18 01:35:34;;;;;;;3.70;3.20;;;;;;;;;;5056865;28;20459;-81
2024/03/18 01:38:03;;;;;;;5.95;3.45;;;;;;;;;;5056100;28;20373;-81
2024/03/18 01:40:29;;;;;;;5.05;3.20;;;;;;;;;;5057020;28;20430;-80
2024/03/18 01:42:55;;;;;;;3.55;2.85;;;;;;;;;;5057018;28;20374;-80
2024/03/18 01:45:22;;;;;;;4.55;2.75;;;;;;;;;;5057086;28;20488;-80
2024/03/18 01:47:49;;;;;;;6.55;3.20;;;;;;;;;;5052279;28;20393;-80
2024/03/18 01:50:15;;;;;;;5.47;2.70;;;;;;;;;;5057110;28;20417;-80
2024/03/18 01:52:41;;;;;;;4.15;2.97;;;;;;;;;;5057561;28;20424;-81
2024/03/18 01:55:08;;;;;;;3.75;2.90;;;;;;;;;;5057339;28;20496;-80
2024/03/18 01:57:35;;;;;;;3.45;2.40;;;;;;;;;;5057108;28;20384;-80
2024/03/18 02:00:02;;;;;;;4.00;2.50;;;;;;;;;;5056832;28;20609;-80
2024/03/18 02:02:27;;;;;;;6.07;2.70;;;;;;;;;;5056728;28;20780;-80
2024/03/18 02:04:53;;;;;;;3.35;3.00;;;;;;;;;;5056813;28;20381;-80
2024/03/18 02:07:25;;;;;;;3.85;2.60;;;;;;;;;;5056799;28;20407;-80
2024/03/18 02:09:51;;;;;;;4.38;2.78;;;;;;;;;;5049443;28;20722;-80
2024/03/18 02:12:17;;;;;;;3.90;2.58;;;;;;;;;;5053271;28;20385;-81
2024/03/18 02:14:46;;;;;;;4.05;2.70;;;;;;;;;;5056625;28;20413;-80
2024/03/18 02:17:12;;;;;;;4.35;3.05;;;;;;;;;;5056442;28;20416;-80
2024/03/18 02:19:38;;;;;;;2.60;2.40;;;;;;;;;;5055473;28;20390;-80
2024/03/18 02:22:06;;;;;;;4.75;2.60;;;;;;;;;;5056808;28;20403;-80
2024/03/18 02:24:32;;;;;;;3.25;2.78;;;;;;;;;;5056721;28;20377;-81
2024/03/18 02:27:05;;;;;;;3.90;2.40;;;;;;;;;;5056810;28;20408;-81
2024/03/18 02:29:31;;;;;;;4.15;2.80;;;;;;;;;;5054817;28;20401;-80
2024/03/18 02:31:57;;;;;;;5.75;3.00;;;;;;;;;;5056590;28;20381;-81
2024/03/18 02:34:23;;;;;;;5.37;3.03;;;;;;;;;;5056464;28;20864;-81
2024/03/18 02:36:51;;;;;;;4.25;3.20;;;;;;;;;;5056476;28;20383;-80
2024/03/18 02:39:17;;;;;;;5.72;3.08;;;;;;;;;;5056116;28;20453;-80
2024/03/18 02:41:43;;;;;;;5.82;3.13;;;;;;;;;;5055573;28;20727;-80
2024/03/18 02:44:12;;;;;;;4.70;3.23;;;;;;;;;;5055992;28;20475;-80
2024/03/18 02:46:38;;;;;;;4.35;2.80;;;;;;;;;;5055227;28;20400;-80
2024/03/18 02:49:04;;;;;;;3.40;2.80;;;;;;;;;;5056079;28;20397;-80
2024/03/18 02:51:30;;;;;;;3.45;2.90;;;;;;;;;;5055207;28;20911;-80
2024/03/18 02:53:56;;;;;;;4.22;2.88;;;;;;;;;;5055809;28;20879;-80
2024/03/18 02:56:23;;;;;;;4.53;3.30;;;;;;;;;;5055695;28;20389;-80
2024/03/18 02:58:49;;;;;;;3.90;3.50;;;;;;;;;;5055431;28;20442;-80
2024/03/18 03:01:14;;;;;;;4.10;3.50;;;;;;;;;;5055720;28;20456;-80
2024/03/18 03:03:40;;;;;;;5.00;3.70;;;;;;;;;;5055726;28;20464;-80
2024/03/18 03:06:07;;;;;;;5.53;3.70;;;;;;;;;;5055812;28;20373;-80
2024/03/18 03:08:33;;;;;;;5.82;3.83;;;;;;;;;;5056358;28;20735;-80
2024/03/18 03:11:04;;;;;;;3.33;3.03;;;;;;;;;;5054468;28;20724;-81
2024/03/18 03:13:30;;;;;;;4.38;2.90;;;;;;;;;;5055361;28;20805;-80
2024/03/18 03:15:56;;;;;;;4.00;2.90;;;;;;;;;;5055391;28;20459;-80
2024/03/18 03:18:22;;;;;;;2.90;2.60;;;;;;;;;;5055607;28;20472;-80
2024/03/18 03:20:48;;;;;;;4.05;3.03;;;;;;;;;;5055636;28;20385;-80
2024/03/18 03:23:15;;;;;;;3.17;2.80;;;;;;;;;;5055615;28;20468;-80
2024/03/18 03:25:42;;;;;;;5.60;3.28;;;;;;;;;;5054751;28;20419;-80
2024/03/18 03:28:08;;;;;;;5.32;3.65;;;;;;;;;;5055259;28;20381;-80
2024/03/18 03:30:35;;;;;;;5.57;3.28;;;;;;;;;;5055083;28;20385;-80
2024/03/18 03:33:04;;;;;;;6.15;3.28;;;;;;;;;;5054940;28;20874;-80
2024/03/18 03:35:30;;;;;;;4.07;3.30;;;;;;;;;;5054787;28;20405;-80
2024/03/18 03:37:56;;;;;;;3.30;2.95;;;;;;;;;;5054980;28;20447;-80
2024/03/18 03:40:22;;;;;;;4.78;2.92;;;;;;;;;;5055312;28;20377;-80
2024/03/18 03:42:48;;;;;;;4.22;3.13;;;;;;;;;;5055245;28;20389;-80
2024/03/18 03:45:14;;;;;;;4.53;2.88;;;;;;;;;;5055222;28;20400;-80
2024/03/18 03:47:40;;;;;;;4.25;3.30;;;;;;;;;;5055120;28;20385;-80
2024/03/18 03:50:07;;;;;;;4.38;2.78;;;;;;;;;;5055078;28;20879;-80
2024/03/18 03:52:33;;;;;;;3.80;2.95;;;;;;;;;;5055145;28;20385;-81
2024/03/18 03:54:59;;;;;;;5.00;2.88;;;;;;;;;;5048493;28;20442;-80
2024/03/18 03:57:25;;;;;;;3.42;3.08;;;;;;;;;;5054614;28;20389;-80
2024/03/18 03:59:51;;;;;;;4.40;2.90;;;;;;;;;;5055078;28;20461;-80
2024/03/18 04:02:17;;;;;;;5.80;2.70;;;;;;;;;;5054664;28;20424;-80
2024/03/18 04:04:43;;;;;;;4.72;2.88;;;;;;;;;;5054836;28;20427;-81
2024/03/18 04:07:09;;;;;;;3.47;3.05;;;;;;;;;;5054527;28;20389;-80
2024/03/18 04:09:35;;;;;;;4.88;3.10;;;;;;;;;;5054160;28;20460;-80
2024/03/18 04:12:02;;;;;;;4.35;3.05;;;;;;;;;;5053885;28;20417;-80
2024/03/18 04:14:28;;;;;;;4.20;3.53;;;;;;;;;;5049733;28;20465;-80
2024/03/18 04:16:54;;;;;;;3.85;3.17;;;;;;;;;;5054069;28;20396;-80
2024/03/18 04:19:21;;;;;;;3.97;3.33;;;;;;;;;;5054717;28;20844;-80
2024/03/18 04:21:47;;;;;;;3.70;3.17;;;;;;;;;;5054765;28;20378;-80
2024/03/18 04:24:14;;;;;;;4.53;3.47;;;;;;;;;;5052595;28;20402;-80
2024/03/18 04:26:41;;;;;;;4.03;3.63;;;;;;;;;;5053881;28;20381;-80
2024/03/18 04:29:07;;;;;;;4.03;3.40;;;;;;;;;;5053733;28;20751;-80
2024/03/18 04:31:33;;;;;;;5.00;3.53;;;;;;;;;;5053875;28;20468;-80
2024/03/18 04:34:00;;;;;;;3.67;3.22;;;;;;;;;;5053335;28;20413;-80
2024/03/18 04:36:26;;;;;;;4.72;3.10;;;;;;;;;;5053484;28;20847;-80
2024/03/18 04:38:52;;;;;;;4.18;3.20;;;;;;;;;;5053449;28;20443;-81
2024/03/18 04:41:18;;;;;;;4.80;3.25;;;;;;;;;;5051236;28;20385;-80
2024/03/18 04:43:44;;;;;;;3.60;3.20;;;;;;;;;;5037985;28;20885;-80
2024/03/18 04:46:10;;;;;;;4.73;3.40;;;;;;;;;;5033315;28;20443;-80
2024/03/18 04:48:36;;;;;;;4.03;3.45;;;;;;;;;;5051639;28;20384;-80
2024/03/18 04:51:02;;;;;;;4.22;3.20;;;;;;;;;;5052671;28;20405;-80
2024/03/18 04:53:28;;;;;;;3.92;3.28;;;;;;;;;;5053004;28;20396;-80
2024/03/18 04:55:54;;;;;;;3.88;3.33;;;;;;;;;;5052666;28;20389;-81
2024/03/18 04:58:20;;;;;;;3.92;3.35;;;;;;;;;;5053908;28;20384;-80
2024/03/18 05:00:46;;;;;;;4.18;3.30;;;;;;;;;;5053192;28;20381;-80
2024/03/18 05:03:12;;;;;;;4.43;3.38;;;;;;;;;;5052952;28;21264;-80
2024/03/18 05:05:39;;;;;;;3.60;3.20;;;;;;;;;;5052707;28;20414;-80
2024/03/18 05:08:05;;;;;;;4.47;3.30;;;;;;;;;;5053108;28;20394;-80
2024/03/18 05:10:31;;;;;;;3.97;3.10;;;;;;;;;;5053009;28;20388;-80
2024/03/18 05:13:01;;;;;;;3.72;3.22;;;;;;;;;;5053016;28;20763;-80
2024/03/18 05:15:27;;;;;;;3.70;3.30;;;;;;;;;;5052282;28;20405;-80
2024/03/18 05:17:53;;;;;;;4.27;3.20;;;;;;;;;;5052919;28;20377;-80
2024/03/18 05:20:19;;;;;;;3.63;3.00;;;;;;;;;;5052940;28;20405;-80
2024/03/18 05:22:45;;;;;;;4.07;3.33;;;;;;;;;;5052969;28;20436;-80
2024/03/18 05:25:13;;;;;;;4.28;3.40;;;;;;;;;;5052842;28;20389;-80
2024/03/18 05:27:39;;;;;;;6.20;3.88;;;;;;;;;;5052609;28;20507;-80
2024/03/18 05:30:06;;;;;;;4.07;3.60;;;;;;;;;;5052252;28;20403;-80
2024/03/18 05:32:32;;;;;;;5.10;3.90;;;;;;;;;;5052618;28;20479;-80
2024/03/18 05:34:58;;;;;;;5.47;4.07;;;;;;;;;;5052730;28;20437;-80
2024/03/18 05:37:25;;;;;;;4.13;3.63;;;;;;;;;;5052543;28;20423;-80
2024/03/18 05:39:51;;;;;;;4.20;3.80;;;;;;;;;;5050874;28;20381;-80
2024/03/18 05:42:17;;;;;;;4.53;3.80;;;;;;;;;;5051927;28;20458;-80
2024/03/18 05:44:43;;;;;;;4.50;3.80;;;;;;;;;;5052486;28;20397;-80
2024/03/18 05:47:09;;;;;;;5.32;3.70;;;;;;;;;;5052029;28;20400;-80
2024/03/18 05:49:35;;;;;;;4.53;3.97;;;;;;;;;;5051810;28;20417;-80
2024/03/18 05:52:03;;;;;;;4.38;3.97;;;;;;;;;;5052249;28;20823;-80
2024/03/18 05:54:29;;;;;;;4.00;3.67;;;;;;;;;;5052227;28;20437;-80
2024/03/18 05:56:55;;;;;;;6.23;4.17;;;;;;;;;;5052603;28;20467;-81
2024/03/18 05:59:21;;;;;;;4.57;4.13;;;;;;;;;;5052414;28;20382;-80
2024/03/18 06:01:47;;;;;;;4.43;4.03;;;;;;;;;;5052038;28;20447;-81
2024/03/18 06:04:13;;;;;;;5.20;4.07;;;;;;;;;;5051570;28;20420;-81
2024/03/18 06:06:42;;;;;;;4.53;4.13;;;;;;;;;;5045763;28;20377;-80
2024/03/18 06:09:08;;;;;;;6.40;4.22;;;;;;;;;;5052570;28;20401;-81
2024/03/18 06:11:34;;;;;;;4.80;4.40;;;;;;;;;;5046577;28;20373;-80
2024/03/18 06:14:01;;;;;;;4.63;4.03;;;;;;;;;;5052447;28;20409;-80
2024/03/18 06:16:27;;;;;;;5.32;4.82;;;;;;;;;;5052360;28;20914;-81
2024/03/18 06:18:54;;;;;;;5.10;4.60;;;;;;;;;;5055931;28;20381;-80
2024/03/18 06:21:20;;;;;;;5.20;4.70;;;;;;;;;;5056334;28;20444;-81
2024/03/18 06:23:50;;;;;;;6.22;4.80;;;;;;;;;;5057430;28;20381;-81
2024/03/18 06:26:16;;;;;;;5.68;5.07;;;;;;;;;;5055814;28;20377;-81
2024/03/18 06:28:43;;;;;;;5.93;5.32;;;;;;;;;;5056181;28;20396;-80
2024/03/18 06:31:09;;;;;;;5.50;5.00;;;;;;;;;;5056183;28;20381;-80
2024/03/18 06:33:36;;;;;;;4.95;4.43;;;;;;;;;;5041996;28;20377;-81
2024/03/18 06:36:08;;;;;;;5.50;4.97;;;;;;;;;;5055702;28;20431;-80
2024/03/18 06:38:35;;;;;;;5.68;5.18;;;;;;;;;;5055354;28;20472;-80
2024/03/18 06:41:01;;;;;;;6.15;5.40;;;;;;;;;;5055870;28;20419;-80
2024/03/18 06:43:27;;;;;;;6.10;5.50;;;;;;;;;;5055381;28;20461;-80
2024/03/18 06:45:53;;;;;;;5.97;5.38;;;;;;;;;;5055284;28;20871;-80
2024/03/18 06:48:19;;;;;;;5.93;5.32;;;;;;;;;;5054892;28;20378;-80
2024/03/18 06:50:45;;;;;;;6.15;5.20;;;;;;;;;;5055281;28;20407;-80
2024/03/18 06:53:11;;;;;;;6.40;5.53;;;;;;;;;;5054982;28;20443;-80
2024/03/18 06:55:40;;;;;;;6.18;5.65;;;;;;;;;;5055216;28;20526;-80
2024/03/18 06:58:06;;;;;;;5.57;5.07;;;;;;;;;;5054903;28;20373;-80
2024/03/18 07:00:32;;;;;;;5.05;4.55;;;;;;;;;;5054756;28;20386;-80
2024/03/18 07:02:58;;;;;;;6.80;5.85;;;;;;;;;;5054659;28;20870;-80
2024/03/18 07:05:25;;;;;;;5.88;5.38;;;;;;;;;;5055109;28;20417;-80
2024/03/18 07:07:51;;;;;;;6.03;5.43;;;;;;;;;;5055278;28;20396;-80
2024/03/18 07:10:18;;;;;;;7.00;6.30;;;;;;;;;;5055200;28;20380;-80
2024/03/18 07:12:44;;;;;;;6.10;5.60;;;;;;;;;;5056886;28;20386;-81
2024/03/18 07:15:11;;;;;;;6.65;5.97;;;;;;;;;;5056714;28;20871;-82
2024/03/18 07:17:37;;;;;;;6.95;5.70;;;;;;;;;;5056370;28;20378;-81
2024/03/18 07:20:07;;;;;;;6.38;5.53;;;;;;;;;;5055852;28;20395;-82
2024/03/18 07:22:36;;;;;;;7.25;5.60;;;;;;;;;;5056280;28;20884;-81
2024/03/18 07:25:03;;;;;;;5.88;5.38;;;;;;;;;;5056553;28;20465;-81
2024/03/18 07:27:29;;;;;;;6.95;6.35;;;;;;;;;;5056333;28;20404;-81
2024/03/18 07:29:55;;;;;;;6.75;6.25;;;;;;;;;;5056557;28;20385;-81
2024/03/18 07:32:23;;;;;;;7.25;6.55;;;;;;;;;;5056762;28;20393;-81
2024/03/18 07:34:49;;;;;;;6.78;6.15;;;;;;;;;;5056299;28;20409;-81
2024/03/18 07:37:15;;;;;;;7.55;6.80;;;;;;;;;;5056283;28;20847;-81
2024/03/18 07:39:41;;;;;;;7.45;6.63;;;;;;;;;;5055672;28;20386;-81
2024/03/18 07:42:07;;;;;;;7.10;6.50;;;;;;;;;;5056005;28;20468;-82
2024/03/18 07:44:33;;;;;;;7.95;7.20;;;;;;;;;;5056462;28;20404;-81
2024/03/18 07:47:00;;;;;;;6.80;6.20;;;;;;;;;;5056089;28;20404;-81
2024/03/18 07:49:26;;;;;;;6.53;5.90;;;;;;;;;;5056148;28;20405;-81
2024/03/18 07:51:51;;;;;;;7.13;6.53;;;;;;;;;;5057069;28;20747;-81
2024/03/18 07:54:19;;;;;;;7.53;6.78;;;;;;;;;;5055936;28;21468;-81
2024/03/18 07:56:45;;;;;;;7.40;6.70;;;;;;;;;;5056311;28;20385;-81
2024/03/18 07:59:11;;;;;;;7.28;6.60;;;;;;;;;;5056499;28;20441;-81
2024/03/18 08:01:37;;;;;;;6.50;6.00;;;;;;;;;;5056393;28;20377;-81
2024/03/18 08:04:03;;;;;;;7.10;6.40;;;;;;;;;;5055042;28;20873;-81
2024/03/18 08:06:29;;;;;;;7.10;6.50;;;;;;;;;;5055728;28;20385;-81
2024/03/18 08:08:55;;;;;;;7.90;6.90;;;;;;;;;;5055674;28;20389;-82
2024/03/18 08:11:21;;;;;;;7.05;6.50;;;;;;;;;;5055551;28;20422;-82
2024/03/18 08:13:47;;;;;;;7.85;7.20;;;;;;;;;;5054310;28;20443;-81
2024/03/18 08:16:13;;;;;;;8.52;7.72;;;;;;;;;;5055139;28;20385;-82
2024/03/18 08:18:39;;;;;;;8.18;7.47;;;;;;;;;;5054649;28;20835;-81
2024/03/18 08:21:05;;;;;;;8.50;7.70;;;;;;;;;;5054536;28;20451;-81
2024/03/18 08:23:31;;;;;;;8.38;7.68;;;;;;;;;;5054845;28;20389;-81
2024/03/18 08:25:57;;;;;;;9.20;8.40;;;;;;;;;;5055132;28;20378;-81
2024/03/18 08:28:23;;;;;;;9.25;8.45;;;;;;;;;;5055498;28;20394;-81
2024/03/18 08:30:49;;;;;;;10.80;9.80;;;;;;;;;;5055128;28;20430;-81
2024/03/18 08:33:15;;;;;;;10.52;9.52;;;;;;;;;;5055173;28;20377;-81
2024/03/18 08:35:41;;;;;;;10.77;9.80;;;;;;;;;;5054909;28;20463;-81
2024/03/18 08:38:07;;;;;;;11.05;10.00;;;;;;;;;;5054887;28;20395;-81
2024/03/18 08:40:33;;;;;;;11.43;10.43;;;;;;;;;;5054574;28;20450;-81
2024/03/18 08:42:59;;;;;;;10.25;9.35;;;;;;;;;;5055616;28;20373;-81
2024/03/18 08:45:25;;;;;;;10.10;9.15;;;;;;;;;;5055587;28;20377;-81
2024/03/18 08:47:51;;;;;;;10.60;9.70;;;;;;;;;;5055060;28;20942;-82
2024/03/18 08:50:17;;;;;;;9.55;8.73;;;;;;;;;;5055612;28;20457;-81
2024/03/18 08:52:43;;;;;;;9.63;8.82;;;;;;;;;;5055653;28;20412;-81
2024/03/18 08:55:10;;;;;;;9.50;8.70;;;;;;;;;;5055310;28;20413;-81
2024/03/18 08:57:36;;;;;;;9.57;8.80;;;;;;;;;;5054797;28;20369;-81
2024/03/18 09:00:03;;;;;;;9.20;8.35;;;;;;;;;;5055649;28;20377;-82
2024/03/18 09:02:29;;;;;;;9.30;8.50;;;;;;;;;;5055799;28;20697;-81
2024/03/18 09:04:55;;;;;;;9.60;8.77;;;;;;;;;;5055260;28;20396;-81
2024/03/18 09:07:22;;;;;;;8.52;7.72;;;;;;;;;;5055535;28;20381;-81
2024/03/18 09:09:48;;;;;;;8.30;7.70;;;;;;;;;;5055902;28;20380;-81
2024/03/18 09:12:14;;;;;;;8.40;7.70;;;;;;;;;;5055492;28;20381;-81
2024/03/18 09:14:40;;;;;;;9.30;8.50;;;;;;;;;;5055054;28;20405;-81
2024/03/18 09:17:06;;;;;;;9.90;8.90;;;;;;;;;;5055704;28;20413;-81
2024/03/18 09:19:39;;;;;;;12.53;11.40;;;;;;;;;;5055250;28;20792;-81
2024/03/18 09:22:08;;;;;;;12.50;11.50;;;;;;;;;;5055864;28;20858;-81
2024/03/18 09:24:34;;;;;;;13.13;11.93;;;;;;;;;;5055474;28;20403;-81
2024/03/18 09:27:02;;;;;;;14.02;12.82;;;;;;;;;;5055628;28;20910;-81
2024/03/18 09:29:29;;;;;;;14.82;13.52;;;;;;;;;;5054646;28;20386;-81
2024/03/18 09:31:55;;;;;;;15.90;14.40;;;;;;;;;;5055386;28;20412;-81
2024/03/18 09:34:21;;;;;;;16.35;14.80;;;;;;;;;;5055820;28;20408;-81
2024/03/18 09:36:47;;;;;;;16.02;14.60;;;;;;;;;;5056152;28;20431;-81
2024/03/18 09:39:14;;;;;;;18.33;16.55;;;;;;;;;;5056458;28;20413;-81
2024/03/18 09:41:40;;;;;;;20.13;18.13;;;;;;;;;;5057356;28;20405;-81
2024/03/18 09:44:14;;;;;;;18.93;16.93;;;;;;;;;;5056922;28;20381;-81
2024/03/18 09:46:40;;;;;;;17.92;16.23;;;;;;;;;;5056669;28;20899;-81
2024/03/18 09:49:32;;;;;;;19.48;17.50;;;;;;;;;;5055970;28;20421;-81
2024/03/18 09:51:59;;;;;;;18.25;16.48;;;;;;;;;;5053925;28;20925;-81
2024/03/18 09:54:25;;;;;;;18.27;16.52;;;;;;;;;;5059587;28;20409;-81
2024/03/18 09:57:11;;;;;;;18.60;16.80;;;;;;;;;;5059817;28;20405;-81
2024/03/18 09:59:38;;;;;;;17.00;15.40;;;;;;;;;;5059782;28;20380;-81
2024/03/18 10:02:05;;;;;;;16.73;15.27;;;;;;;;;;5059323;28;20415;-81
2024/03/18 10:04:31;;;;;;;15.48;14.02;;;;;;;;;;5059889;28;20397;-81
2024/03/18 10:06:57;;;;;;;19.17;17.33;;;;;;;;;;5059421;28;20393;-81
2024/03/18 10:09:26;;;;;;;17.98;16.27;;;;;;;;;;5057770;28;20429;-81
2024/03/18 10:11:52;;;;;;;15.47;14.27;;;;;;;;;;5052699;28;20434;-82
2024/03/18 10:14:18;;;;;;;15.27;14.00;;;;;;;;;;5059995;28;20436;-81
2024/03/18 10:16:44;;;;;;;15.68;14.25;;;;;;;;;;5060289;28;20378;-81
2024/03/18 10:19:19;;;;;;;14.77;13.48;;;;;;;;;;5060858;28;20469;-81
2024/03/18 10:21:45;;;;;;;18.80;16.98;;;;;;;;;;5059916;28;20370;-82
2024/03/18 10:24:14;;;;;;;19.65;17.55;;;;;;;;;;5049823;28;20391;-81
2024/03/18 10:26:40;;;;;;;20.40;18.30;;;;;;;;;;5059248;28;20380;-81
2024/03/18 10:29:07;;;;;;;20.40;18.38;;;;;;;;;;5058884;28;20386;-81
2024/03/18 10:31:37;;;;;;;18.05;16.25;;;;;;;;;;5059354;28;20377;-81
2024/03/18 10:34:08;;;;;;;16.40;14.77;;;;;;;;;;5060627;28;20420;-81
2024/03/18 10:36:37;;;;;;;14.70;13.35;;;;;;;;;;5061141;28;20386;-81
2024/03/18 10:39:07;;;;;;;11.25;10.35;;;;;;;;;;5060627;28;20409;-81
2024/03/18 10:41:35;;;;;;;10.93;10.13;;;;;;;;;;5060572;28;20378;-81
2024/03/18 10:44:03;;;;;;;9.15;8.45;;;;;;;;;;5061406;28;20436;-81
2024/03/18 10:46:30;;;;;;;9.05;8.43;;;;;;;;;;5061433;28;20378;-82
2024/03/18 10:48:57;;;;;;;10.23;9.43;;;;;;;;;;5061873;28;20381;-81
2024/03/18 10:51:24;;;;;;;9.00;8.30;;;;;;;;;;5059347;28;20401;-81
2024/03/18 10:53:51;;;;;;;8.93;8.23;;;;;;;;;;5062033;28;20743;-81
2024/03/18 10:56:18;;;;;;;8.70;8.00;;;;;;;;;;5062264;28;20467;-81
2024/03/18 10:58:44;;;;;;;8.75;8.07;;;;;;;;;;5062302;28;20739;-81
2024/03/18 11:01:10;;;;;;;8.20;7.53;;;;;;;;;;5063278;28;20894;-81
2024/03/18 11:03:42;;;;;;;8.40;7.80;;;;;;;;;;5062577;28;20378;-82
2024/03/18 11:06:13;;;;;;;8.40;7.78;;;;;;;;;;5064011;28;20385;-81
2024/03/18 11:08:41;;;;;;;8.82;8.13;;;;;;;;;;5063249;28;20374;-81
2024/03/18 11:11:07;;;;;;;8.80;7.47;;;;;;;;;;5063039;28;20867;-81
2024/03/18 11:13:34;;;;;;;8.38;7.78;;;;;;;;;;5062830;28;20392;-81
2024/03/18 11:16:07;;;;;;;7.20;6.60;;;;;;;;;;5063114;28;20409;-81
2024/03/18 11:18:35;;;;;;;7.68;7.00;;;;;;;;;;5061973;28;20393;-81
2024/03/18 11:21:05;;;;;;;9.00;8.20;;;;;;;;;;5062246;28;20397;-81
2024/03/18 11:23:32;;;;;;;8.50;7.80;;;;;;;;;;5061997;28;20881;-81
2024/03/18 11:26:06;;;;;;;8.02;7.43;;;;;;;;;;5061428;28;20393;-81
2024/03/18 11:28:32;;;;;;;7.80;7.20;;;;;;;;;;5061802;28;20445;-82
2024/03/18 11:30:59;;;;;;;7.93;7.25;;;;;;;;;;5061314;28;20448;-81
2024/03/18 11:33:27;;;;;;;7.90;7.30;;;;;;;;;;5061607;28;20417;-81
2024/03/18 11:35:53;;;;;;;7.22;6.63;;;;;;;;;;5061169;28;20409;-81
2024/03/18 11:38:19;;;;;;;7.07;6.47;;;;;;;;;;5061879;28;20381;-81
2024/03/18 11:40:46;;;;;;;7.03;6.45;;;;;;;;;;5061177;28;20369;-81
2024/03/18 11:43:12;;;;;;;6.80;6.28;;;;;;;;;;5060807;28;20385;-81
2024/03/18 11:45:38;;;;;;;6.28;5.78;;;;;;;;;;5060956;28;20386;-81
2024/03/18 11:48:06;;;;;;;6.80;6.30;;;;;;;;;;5061211;28;20399;-81
2024/03/18 11:50:35;;;;;;;6.47;5.95;;;;;;;;;;5060779;28;20405;-81
2024/03/18 11:53:04;;;;;;;5.30;4.80;;;;;;;;;;5059999;28;20385;-81
2024/03/18 11:55:34;;;;;;;4.68;4.38;;;;;;;;;;5060064;28;20887;-81
2024/03/18 11:58:01;;;;;;;3.97;3.67;;;;;;;;;;5059624;28;20465;-81
2024/03/18 12:00:27;;;;;;;3.38;3.17;;;;;;;;;;5058576;28;20401;-81
2024/03/18 12:02:53;;;;;;;3.80;3.50;;;;;;;;;;5060824;28;20412;-81
2024/03/18 12:05:20;;;;;;;4.00;3.70;;;;;;;;;;5060256;28;20875;-82
2024/03/18 12:07:46;;;;;;;4.40;4.10;;;;;;;;;;5058550;28;20415;-81
2024/03/18 12:10:16;;;;;;;3.45;3.15;;;;;;;;;;5059611;28;20832;-81
2024/03/18 12:12:42;;;;;;;4.05;3.75;;;;;;;;;;5058942;28;20385;-81
2024/03/18 12:15:08;;;;;;;4.30;3.93;;;;;;;;;;5057670;28;20456;-81
2024/03/18 12:17:34;;;;;;;3.10;2.90;;;;;;;;;;5058248;28;20423;-81
2024/03/18 12:20:00;;;;;;;3.17;2.97;;;;;;;;;;5057406;28;20373;-81
2024/03/18 12:22:30;;;;;;;2.30;2.20;;;;;;;;;;5058407;28;20369;-81
2024/03/18 12:30:34;;;;;;;2.17;1.93;;;;;;;;;;5050515;28;20401;-81
2024/03/18 12:33:04;;;;;;;1.63;1.52;;;;;;;;;;5057757;28;20369;-81
2024/03/18 12:35:31;;;;;;;2.35;1.88;;;;;;;;;;5058230;28;20401;-81
2024/03/18 12:37:57;;;;;;;2.28;2.13;;;;;;;;;;5057229;28;20932;-81
2024/03/18 12:40:24;;;;;;;2.42;2.22;;;;;;;;;;5057776;28;20413;-81
2024/03/18 12:42:50;;;;;;;2.60;2.40;;;;;;;;;;5056995;28;20377;-81
2024/03/18 12:45:16;;;;;;;2.10;2.00;;;;;;;;;;5056933;28;20393;-81
2024/03/18 12:47:42;;;;;;;2.30;2.10;;;;;;;;;;5057111;28;20377;-81
2024/03/18 12:50:10;;;;;;;2.50;2.30;;;;;;;;;;5056092;28;20412;-81
2024/03/18 12:52:36;;;;;;;2.45;2.25;;;;;;;;;;5056339;28;20381;-81
2024/03/18 12:55:04;;;;;;;2.47;2.28;;;;;;;;;;5056863;28;20413;-81
2024/03/18 12:57:31;;;;;;;1.90;1.70;;;;;;;;;;5056617;28;20381;-81
2024/03/18 12:59:57;;;;;;;2.15;1.88;;;;;;;;;;5056121;28;20385;-81
2024/03/18 13:02:23;;;;;;;2.50;2.17;;;;;;;;;;5056180;28;20380;-81
2024/03/18 13:04:49;;;;;;;2.08;1.98;;;;;;;;;;5056588;28;20815;-81
2024/03/18 13:07:15;;;;;;;2.10;1.90;;;;;;;;;;5056189;28;20427;-81
2024/03/18 13:09:41;;;;;;;2.70;2.50;;;;;;;;;;5055378;28;20381;-81
2024/03/18 13:12:07;;;;;;;2.47;2.28;;;;;;;;;;5056244;28;20819;-81
2024/03/18 13:14:33;;;;;;;2.07;1.97;;;;;;;;;;5055599;28;20489;-81
2024/03/18 13:16:59;;;;;;;2.50;2.10;;;;;;;;;;5056205;28;20471;-81
2024/03/18 13:19:25;;;;;;;2.30;2.20;;;;;;;;;;5056637;28;20377;-81
2024/03/18 13:21:53;;;;;;;2.38;2.17;;;;;;;;;;5056758;28;20751;-81
2024/03/18 13:24:19;;;;;;;2.45;2.25;;;;;;;;;;5057319;28;20423;-81
2024/03/18 13:26:45;;;;;;;3.28;2.90;;;;;;;;;;5057052;28;20763;-81
2024/03/18 13:29:14;;;;;;;2.60;2.40;;;;;;;;;;5056503;28;20378;-81
2024/03/18 13:31:40;;;;;;;2.57;2.37;;;;;;;;;;5056776;28;20459;-81
2024/03/18 13:34:10;;;;;;;2.50;2.30;;;;;;;;;;5056950;28;20454;-81
2024/03/18 13:36:36;;;;;;;2.58;2.38;;;;;;;;;;5056723;28;20381;-81
2024/03/18 13:39:05;;;;;;;3.10;2.30;;;;;;;;;;5056263;28;20457;-81
2024/03/18 13:41:32;;;;;;;4.07;2.92;;;;;;;;;;5056636;28;20748;-81
2024/03/18 13:43:58;;;;;;;2.63;2.43;;;;;;;;;;5056467;28;20458;-81
2024/03/18 13:46:24;;;;;;;3.25;2.33;;;;;;;;;;5056263;28;20393;-81
2024/03/18 13:48:50;;;;;;;2.38;2.13;;;;;;;;;;5056590;28;20436;-81
2024/03/18 13:51:16;;;;;;;2.40;2.20;;;;;;;;;;5056243;28;20864;-81
2024/03/18 13:53:43;;;;;;;2.17;1.88;;;;;;;;;;5055798;28;20392;-81
2024/03/18 13:56:11;;;;;;;2.78;2.15;;;;;;;;;;5055993;28;20462;-82
2024/03/18 13:58:39;;;;;;;1.58;1.38;;;;;;;;;;5055025;28;20424;-81
2024/03/18 14:01:09;;;;;;;1.80;1.67;;;;;;;;;;5056049;28;20381;-81
2024/03/18 14:03:35;;;;;;;1.60;1.48;;;;;;;;;;5055240;28;20374;-81
2024/03/18 14:06:01;;;;;;;2.07;1.87;;;;;;;;;;5055895;28;20866;-81
2024/03/18 14:08:27;;;;;;;2.42;1.55;;;;;;;;;;5053628;28;20492;-81
2024/03/18 14:10:53;;;;;;;1.90;1.80;;;;;;;;;;5055679;28;20390;-82
2024/03/18 14:13:19;;;;;;;1.90;1.52;;;;;;;;;;5054299;28;20382;-81
2024/03/18 14:15:45;;;;;;;3.95;2.70;;;;;;;;;;5044446;28;20419;-81
2024/03/18 14:18:11;;;;;;;1.70;1.60;;;;;;;;;;5055550;28;20381;-81
2024/03/18 14:20:37;;;;;;;1.75;1.65;;;;;;;;;;5056233;28;20392;-81
2024/03/18 14:23:03;;;;;;;2.88;1.73;;;;;;;;;;5055711;28;20393;-82
2024/03/18 14:25:30;;;;;;;1.47;1.33;;;;;;;;;;5054560;28;20522;-81
2024/03/18 14:28:05;;;;;;;1.80;1.67;;;;;;;;;;5053907;28;20463;-81
2024/03/18 14:30:32;;;;;;;1.77;1.67;;;;;;;;;;5055709;28;20388;-82
2024/03/18 14:32:58;;;;;;;1.52;1.40;;;;;;;;;;5045652;28;20922;-81
2024/03/18 14:35:24;;;;;;;1.50;1.40;;;;;;;;;;5055528;28;20474;-81
2024/03/18 14:37:50;;;;;;;2.30;1.80;;;;;;;;;;5056413;28;20805;-81
2024/03/18 14:40:16;;;;;;;1.83;1.73;;;;;;;;;;5060180;28;20460;-81
2024/03/18 14:42:44;;;;;;;2.80;1.83;;;;;;;;;;5059470;28;20441;-80